Time;durP1;ratioP1;P1;durP2;ratioP2;P2;SDS_P1;SDS_P2;PMS_P1;PMS_P2;Temp;Humidity;BMP_temperature;BMP_pressure;BME280_temperature;BME280_humidity;BME280_pressure;Samples;Min_cycle;Max_cycle;Signal;HPM_P1;HPM_P2
2023/07/23 00:01:47;;;;;;;5.22;3.10;;;16.30;99.90;;;;;;5051798;28;20064;-45
2023/07/23 00:04:13;;;;;;;5.07;2.88;;;16.30;99.90;;;;;;5054629;28;20029;-52
2023/07/23 00:06:39;;;;;;;5.30;3.13;;;16.30;99.90;;;;;;5052950;28;20478;-51
2023/07/23 00:09:05;;;;;;;4.82;2.75;;;16.30;99.90;;;;;;5054871;28;20029;-51
2023/07/23 00:11:30;;;;;;;6.85;3.35;;;16.30;99.90;;;;;;5053629;28;20029;-38
2023/07/23 00:13:56;;;;;;;6.20;3.38;;;16.30;99.90;;;;;;5052168;28;20031;-38
2023/07/23 00:16:23;;;;;;;5.30;2.28;;;16.30;99.90;;;;;;5050766;28;20466;-38
2023/07/23 00:18:49;;;;;;;5.80;3.72;;;16.30;99.90;;;;;;5050105;28;20036;-37
2023/07/23 00:21:15;;;;;;;8.57;3.58;;;16.30;99.90;;;;;;5051158;28;20037;-38
2023/07/23 00:23:41;;;;;;;7.40;3.53;;;16.40;99.90;;;;;;5054343;28;20029;-38
2023/07/23 00:26:06;;;;;;;7.85;3.88;;;16.30;99.90;;;;;;5054579;28;20032;-38
2023/07/23 00:28:32;;;;;;;7.63;3.60;;;16.40;99.90;;;;;;5050555;28;20491;-38
2023/07/23 00:30:58;;;;;;;7.35;4.30;;;16.30;99.90;;;;;;5050963;28;20036;-38
2023/07/23 00:33:24;;;;;;;9.20;4.00;;;16.40;99.90;;;;;;5053765;28;20021;-37
2023/07/23 00:35:50;;;;;;;6.75;4.15;;;16.40;99.90;;;;;;5053609;28;20036;-39
2023/07/23 00:38:15;;;;;;;8.95;4.07;;;16.40;99.90;;;;;;5054143;28;20504;-38
2023/07/23 00:40:41;;;;;;;8.00;3.92;;;16.40;99.90;;;;;;5051128;28;20378;-38
2023/07/23 00:43:07;;;;;;;7.18;3.92;;;16.40;99.90;;;;;;5049891;28;20033;-38
2023/07/23 00:45:32;;;;;;;12.48;4.72;;;16.40;99.90;;;;;;5040658;28;20104;-38
2023/07/23 00:47:59;;;;;;;14.15;5.22;;;16.40;99.90;;;;;;5052289;28;20106;-38
2023/07/23 00:50:29;;;;;;;8.95;4.18;;;16.30;99.90;;;;;;5049502;28;20029;-38
2023/07/23 00:52:56;;;;;;;7.90;3.53;;;16.30;99.90;;;;;;5050388;28;20060;-38
2023/07/23 00:55:22;;;;;;;7.07;4.53;;;16.30;99.90;;;;;;5054167;28;20106;-38
2023/07/23 00:57:47;;;;;;;11.45;4.28;;;16.30;99.90;;;;;;5052806;28;20131;-37
2023/07/23 01:00:14;;;;;;;6.05;4.28;;;16.30;99.90;;;;;;5050190;28;20104;-38
2023/07/23 01:02:46;;;;;;;6.20;4.15;;;16.30;99.90;;;;;;5050526;28;20111;-39
2023/07/23 01:05:11;;;;;;;9.13;4.28;;;16.30;99.90;;;;;;5049495;28;20099;-38
2023/07/23 01:07:37;;;;;;;8.82;3.70;;;16.30;99.90;;;;;;5052460;28;20100;-38
2023/07/23 01:10:04;;;;;;;6.45;3.95;;;16.30;99.90;;;;;;5049142;28;20033;-42
2023/07/23 01:12:31;;;;;;;7.75;4.88;;;16.30;99.90;;;;;;5048890;28;20024;-39
2023/07/23 01:14:57;;;;;;;8.73;4.43;;;16.30;99.90;;;;;;5050500;28;20028;-39
2023/07/23 01:17:24;;;;;;;14.45;5.30;;;16.30;99.90;;;;;;5050676;28;20393;-38
2023/07/23 01:20:06;;;;;;;6.75;3.92;;;16.30;99.90;;;;;;5052071;28;20026;-40
2023/07/23 01:22:33;;;;;;;7.05;4.40;;;16.30;99.90;;;;;;5050017;28;20037;-39
2023/07/23 01:24:59;;;;;;;4.20;3.20;;;16.30;99.90;;;;;;5051337;28;20021;-38
2023/07/23 01:27:24;;;;;;;9.25;3.25;;;16.30;99.90;;;;;;5048845;28;20044;-39
2023/07/23 01:29:50;;;;;;;5.65;2.95;;;16.30;99.90;;;;;;5049833;28;20021;-42
2023/07/23 01:32:15;;;;;;;7.38;3.50;;;16.30;99.90;;;;;;5050964;28;20064;-39
2023/07/23 01:34:41;;;;;;;5.85;3.47;;;16.40;99.90;;;;;;5053061;28;20052;-39
2023/07/23 01:37:10;;;;;;;6.30;3.95;;;16.40;99.90;;;;;;5049918;28;20028;-38
2023/07/23 01:39:36;;;;;;;5.00;3.50;;;16.40;99.90;;;;;;5052159;28;20131;-39
2023/07/23 01:42:02;;;;;;;9.98;3.60;;;16.40;99.90;;;;;;5051368;28;20059;-39
2023/07/23 01:44:28;;;;;;;7.07;4.07;;;16.40;99.90;;;;;;5053863;28;20035;-39
2023/07/23 01:46:54;;;;;;;11.57;4.35;;;16.40;99.90;;;;;;5048841;28;20029;-38
2023/07/23 01:49:20;;;;;;;5.20;3.70;;;16.40;99.90;;;;;;5048808;28;20485;-39
2023/07/23 01:51:45;;;;;;;5.00;3.60;;;16.40;99.90;;;;;;5050562;28;20032;-39
2023/07/23 01:54:11;;;;;;;5.65;3.63;;;16.40;99.90;;;;;;5051777;28;20482;-41
2023/07/23 01:56:36;;;;;;;7.07;3.80;;;16.40;99.90;;;;;;5051806;28;20040;-40
2023/07/23 01:59:04;;;;;;;7.40;3.58;;;16.40;99.90;;;;;;5041582;28;20029;-41
2023/07/23 02:01:30;;;;;;;8.20;4.45;;;16.40;99.90;;;;;;5035605;28;20026;-39
2023/07/23 02:03:55;;;;;;;6.43;3.97;;;16.40;99.90;;;;;;5035222;28;20059;-39
2023/07/23 02:06:21;;;;;;;8.10;3.60;;;16.40;99.90;;;;;;5049897;28;20040;-38
2023/07/23 02:08:47;;;;;;;8.20;4.25;;;16.40;99.90;;;;;;5043592;28;20025;-43
2023/07/23 02:11:12;;;;;;;10.02;4.85;;;16.40;99.90;;;;;;5048351;28;20035;-38
2023/07/23 02:13:38;;;;;;;11.25;4.35;;;16.40;99.90;;;;;;5050939;28;20547;-40
2023/07/23 02:16:04;;;;;;;8.73;4.03;;;16.40;99.90;;;;;;5048731;28;20024;-41
2023/07/23 02:18:30;;;;;;;8.85;4.05;;;16.40;99.90;;;;;;5051272;28;20116;-38
2023/07/23 02:20:56;;;;;;;8.27;4.28;;;16.40;99.90;;;;;;5045234;28;20443;-41
2023/07/23 02:23:22;;;;;;;10.85;3.90;;;16.30;99.90;;;;;;5051834;28;20029;-41
2023/07/23 02:25:48;;;;;;;5.68;3.55;;;16.40;99.90;;;;;;5052939;28;20025;-38
2023/07/23 02:28:14;;;;;;;4.43;3.75;;;16.40;99.90;;;;;;5051188;28;20444;-40
2023/07/23 02:30:39;;;;;;;9.10;4.57;;;16.40;99.90;;;;;;5049426;28;20025;-53
2023/07/23 02:33:05;;;;;;;8.63;4.15;;;16.40;99.90;;;;;;5051237;28;20036;-46
2023/07/23 02:35:37;;;;;;;10.07;4.32;;;16.40;99.90;;;;;;5052656;28;20032;-52
2023/07/23 02:38:03;;;;;;;11.23;5.07;;;16.40;99.90;;;;;;5049849;28;20021;-51
2023/07/23 02:40:33;;;;;;;12.73;4.50;;;16.40;99.90;;;;;;5050130;28;20021;-52
2023/07/23 02:42:59;;;;;;;7.03;3.95;;;16.40;99.90;;;;;;5049967;28;20098;-51
2023/07/23 02:45:25;;;;;;;5.45;4.10;;;16.30;99.90;;;;;;5050484;28;20033;-53
2023/07/23 02:47:50;;;;;;;9.25;4.40;;;16.30;99.90;;;;;;5051236;28;20039;-43
2023/07/23 02:50:16;;;;;;;8.32;4.88;;;16.30;99.90;;;;;;5050844;28;20025;-41
2023/07/23 02:52:41;;;;;;;11.32;4.32;;;16.30;99.90;;;;;;5049840;28;20548;-40
2023/07/23 02:55:08;;;;;;;6.78;4.20;;;16.30;99.90;;;;;;5050025;28;20473;-40
2023/07/23 02:57:33;;;;;;;8.70;4.70;;;16.30;99.90;;;;;;5050824;28;20485;-42
2023/07/23 02:59:59;;;;;;;9.25;4.70;;;16.30;99.90;;;;;;5049516;28;20039;-40
2023/07/23 03:02:25;;;;;;;8.27;4.80;;;16.30;99.90;;;;;;5050592;28;20116;-40
2023/07/23 03:04:51;;;;;;;6.45;3.72;;;16.30;99.90;;;;;;5051184;28;20497;-39
2023/07/23 03:07:16;;;;;;;6.53;4.13;;;16.30;99.90;;;;;;5051115;28;20029;-39
2023/07/23 03:09:42;;;;;;;4.75;3.63;;;16.30;99.90;;;;;;5052015;28;20053;-43
2023/07/23 03:12:09;;;;;;;6.40;4.18;;;16.30;99.90;;;;;;5052501;28;20048;-50
2023/07/23 03:14:35;;;;;;;7.90;4.55;;;16.40;99.90;;;;;;5051351;28;20025;-51
2023/07/23 03:17:01;;;;;;;7.57;3.95;;;16.30;99.90;;;;;;5050483;28;20394;-53
2023/07/23 03:19:27;;;;;;;8.15;4.43;;;16.30;99.90;;;;;;5049572;28;20024;-52
2023/07/23 03:21:52;;;;;;;14.23;4.00;;;16.30;99.90;;;;;;5033299;28;20049;-53
2023/07/23 03:24:18;;;;;;;7.10;4.93;;;16.30;99.90;;;;;;5044714;28;20523;-50
2023/07/23 03:26:43;;;;;;;12.55;4.45;;;16.30;99.90;;;;;;5034179;28;20051;-54
2023/07/23 03:29:09;;;;;;;5.45;3.88;;;16.30;99.90;;;;;;5039568;28;21410;-52
2023/07/23 03:31:35;;;;;;;9.40;4.38;;;16.30;99.90;;;;;;5038275;28;20024;-48
2023/07/23 03:34:00;;;;;;;9.38;4.30;;;16.30;99.90;;;;;;5047733;28;20036;-54
2023/07/23 03:36:27;;;;;;;8.50;5.13;;;16.30;99.90;;;;;;5050242;28;20393;-49
2023/07/23 03:38:53;;;;;;;5.60;3.83;;;16.30;99.90;;;;;;5050705;28;20397;-50
2023/07/23 03:41:18;;;;;;;8.25;4.28;;;16.30;99.90;;;;;;5049723;28;20036;-50
2023/07/23 03:43:44;;;;;;;11.40;4.53;;;16.30;99.90;;;;;;5050633;28;20124;-50
2023/07/23 03:46:10;;;;;;;4.95;4.03;;;16.30;99.90;;;;;;5049215;28;20096;-52
2023/07/23 03:48:35;;;;;;;7.28;3.70;;;16.30;99.90;;;;;;5051469;28;20063;-48
2023/07/23 03:51:01;;;;;;;6.93;4.35;;;16.30;99.90;;;;;;5050243;28;20469;-50
2023/07/23 03:53:27;;;;;;;8.18;3.65;;;16.20;99.90;;;;;;5047744;28;20033;-51
2023/07/23 03:55:52;;;;;;;7.32;4.80;;;16.30;99.90;;;;;;5048059;28;20021;-52
2023/07/23 03:58:18;;;;;;;7.80;4.15;;;16.30;99.90;;;;;;5051145;28;20116;-38
2023/07/23 04:00:43;;;;;;;6.13;4.68;;;16.30;99.90;;;;;;5050651;28;20031;-40
2023/07/23 04:03:09;;;;;;;9.02;4.75;;;16.30;99.90;;;;;;5054585;28;20033;-39
2023/07/23 04:05:35;;;;;;;11.32;5.15;;;16.20;99.90;;;;;;5053772;28;20473;-40
2023/07/23 04:08:02;;;;;;;5.32;3.58;;;16.30;99.90;;;;;;5055191;28;20029;-39
2023/07/23 04:10:27;;;;;;;6.20;3.88;;;16.30;99.90;;;;;;5052355;28;20525;-39
2023/07/23 04:12:53;;;;;;;7.20;4.05;;;16.30;99.90;;;;;;5050896;28;20107;-38
2023/07/23 04:15:19;;;;;;;4.03;3.60;;;16.30;99.90;;;;;;5050242;28;20022;-40
2023/07/23 04:17:44;;;;;;;7.55;3.70;;;16.40;99.90;;;;;;5039014;28;20024;-39
2023/07/23 04:20:10;;;;;;;11.70;4.72;;;16.40;99.90;;;;;;5050606;28;20219;-47
2023/07/23 04:22:36;;;;;;;7.13;3.90;;;16.30;99.90;;;;;;5048064;28;20068;-39
2023/07/23 04:25:02;;;;;;;8.45;3.97;;;16.40;99.90;;;;;;5048797;28;20337;-41
2023/07/23 04:27:27;;;;;;;7.97;3.38;;;16.40;99.90;;;;;;5052570;28;20041;-40
2023/07/23 04:29:53;;;;;;;6.07;4.35;;;16.40;99.90;;;;;;5049410;28;20065;-42
2023/07/23 04:32:19;;;;;;;4.97;3.50;;;16.40;99.90;;;;;;5052363;28;20482;-41
2023/07/23 04:34:45;;;;;;;5.70;3.88;;;16.50;99.90;;;;;;5048377;28;20031;-40
2023/07/23 04:37:13;;;;;;;5.53;3.47;;;16.50;99.90;;;;;;5054073;28;20493;-42
2023/07/23 04:39:39;;;;;;;5.68;3.17;;;16.50;99.90;;;;;;5050306;28;20154;-39
2023/07/23 04:42:04;;;;;;;7.32;3.40;;;16.50;99.90;;;;;;5049727;28;20099;-39
2023/07/23 04:44:30;;;;;;;5.80;3.17;;;16.60;99.90;;;;;;5046999;28;20030;-48
2023/07/23 04:46:56;;;;;;;6.18;3.38;;;16.60;99.90;;;;;;5048847;28;20021;-50
2023/07/23 04:49:21;;;;;;;4.93;3.30;;;16.60;99.90;;;;;;5048208;28;20053;-52
2023/07/23 04:51:47;;;;;;;6.38;3.15;;;16.60;99.90;;;;;;5050739;28;20075;-48
2023/07/23 04:54:13;;;;;;;8.02;3.55;;;16.60;99.90;;;;;;5050036;28;20029;-50
2023/07/23 04:56:38;;;;;;;5.47;2.95;;;16.70;99.90;;;;;;5051374;28;20485;-49
2023/07/23 04:59:04;;;;;;;14.13;3.50;;;16.70;99.90;;;;;;5050255;28;20389;-53
2023/07/23 05:01:30;;;;;;;16.20;3.60;;;16.80;99.90;;;;;;5050474;28;20033;-53
2023/07/23 05:03:55;;;;;;;5.78;3.30;;;16.80;99.90;;;;;;5048139;28;20486;-42
2023/07/23 05:06:21;;;;;;;6.40;3.55;;;16.80;99.90;;;;;;5050978;28;20033;-42
2023/07/23 05:08:46;;;;;;;5.32;3.33;;;16.80;99.90;;;;;;5049657;28;20426;-40
2023/07/23 05:11:12;;;;;;;4.93;3.15;;;16.80;99.90;;;;;;5048930;28;20481;-41
2023/07/23 05:13:38;;;;;;;12.38;3.03;;;16.80;99.90;;;;;;5051343;28;20504;-41
2023/07/23 05:16:04;;;;;;;7.45;3.33;;;16.80;99.90;;;;;;5050778;28;20028;-39
2023/07/23 05:18:30;;;;;;;5.63;3.47;;;16.80;99.90;;;;;;5050297;28;20025;-40
2023/07/23 05:20:56;;;;;;;8.10;3.42;;;16.80;99.90;;;;;;5049260;28;20044;-41
2023/07/23 05:23:25;;;;;;;4.50;3.28;;;16.80;99.90;;;;;;5048528;28;20086;-40
2023/07/23 05:25:50;;;;;;;5.13;3.10;;;16.90;99.90;;;;;;5051322;28;20112;-40
2023/07/23 05:28:16;;;;;;;5.55;3.47;;;16.90;99.90;;;;;;5052858;28;20581;-40
2023/07/23 05:30:42;;;;;;;7.88;2.90;;;16.80;99.90;;;;;;5046905;28;20468;-41
2023/07/23 05:33:07;;;;;;;8.60;2.65;;;16.80;99.90;;;;;;5049350;28;20054;-43
2023/07/23 05:35:33;;;;;;;8.88;3.45;;;16.80;99.90;;;;;;5051463;28;20477;-40
2023/07/23 05:37:59;;;;;;;5.90;3.03;;;16.80;99.90;;;;;;5050102;28;20390;-43
2023/07/23 05:40:24;;;;;;;8.88;3.53;;;16.80;99.90;;;;;;5049280;28;20389;-37
2023/07/23 05:42:54;;;;;;;6.03;3.58;;;16.80;99.90;;;;;;5047257;28;20033;-40
2023/07/23 05:45:20;;;;;;;5.57;3.67;;;16.80;99.90;;;;;;5048515;28;20021;-36
2023/07/23 05:47:45;;;;;;;6.88;3.17;;;16.80;99.90;;;;;;5052887;28;20037;-39
2023/07/23 05:50:11;;;;;;;9.02;3.78;;;16.80;99.90;;;;;;5049701;28;20470;-35
2023/07/23 05:52:36;;;;;;;7.70;3.55;;;16.80;99.90;;;;;;5047325;28;20025;-38
2023/07/23 05:55:02;;;;;;;10.00;3.80;;;16.70;99.90;;;;;;5045479;28;20033;-39
2023/07/23 05:57:28;;;;;;;7.65;3.47;;;16.70;99.90;;;;;;5036951;28;20485;-40
2023/07/23 05:59:53;;;;;;;12.90;3.15;;;16.70;99.90;;;;;;5049902;28;20021;-37
2023/07/23 06:02:19;;;;;;;8.35;4.45;;;16.70;99.90;;;;;;5048130;28;20033;-39
2023/07/23 06:04:45;;;;;;;6.63;3.95;;;16.70;99.90;;;;;;5048007;28;20036;-38
2023/07/23 06:07:10;;;;;;;13.50;3.83;;;16.60;99.90;;;;;;5053406;28;20083;-40
2023/07/23 06:09:36;;;;;;;7.38;4.22;;;16.60;99.90;;;;;;5048462;28;20468;-38
2023/07/23 06:12:02;;;;;;;5.35;3.38;;;16.60;99.90;;;;;;5048778;28;20086;-42
2023/07/23 06:14:27;;;;;;;9.10;3.22;;;16.50;99.90;;;;;;5050358;28;20420;-50
2023/07/23 06:16:53;;;;;;;8.48;3.85;;;16.50;99.90;;;;;;5052156;28;20508;-53
2023/07/23 06:19:19;;;;;;;5.63;3.05;;;16.40;99.90;;;;;;5052333;28;20037;-51
2023/07/23 06:21:44;;;;;;;4.05;3.45;;;16.40;99.90;;;;;;5050731;28;20025;-51
2023/07/23 06:24:10;;;;;;;7.25;3.58;;;16.40;99.90;;;;;;5064754;28;20025;-54
2023/07/23 06:26:36;;;;;;;12.10;3.20;;;16.40;99.90;;;;;;5048871;28;20497;-53
2023/07/23 06:29:01;;;;;;;6.63;3.70;;;16.40;99.90;;;;;;5040668;28;20033;-53
2023/07/23 06:31:27;;;;;;;9.40;3.58;;;16.40;99.90;;;;;;5046673;28;20029;-51
2023/07/23 06:33:52;;;;;;;8.48;3.22;;;16.40;99.90;;;;;;5051954;28;20036;-53
2023/07/23 06:36:18;;;;;;;8.25;3.67;;;16.30;99.90;;;;;;5050804;28;20025;-54
2023/07/23 06:38:45;;;;;;;9.93;3.78;;;16.30;99.90;;;;;;5050649;28;20035;-49
2023/07/23 06:41:10;;;;;;;7.85;3.78;;;16.30;99.90;;;;;;5047539;28;20444;-52
2023/07/23 06:43:36;;;;;;;5.15;3.22;;;16.30;99.90;;;;;;5040845;28;20083;-52
2023/07/23 06:46:01;;;;;;;10.05;3.70;;;16.20;99.90;;;;;;5039635;28;20084;-55
2023/07/23 06:48:28;;;;;;;6.07;3.45;;;16.20;99.90;;;;;;5049522;28;20032;-51
2023/07/23 06:50:55;;;;;;;5.63;3.28;;;16.20;99.90;;;;;;5050834;28;20056;-52
2023/07/23 06:53:21;;;;;;;10.70;3.95;;;16.20;99.90;;;;;;5049021;28;20029;-51
2023/07/23 06:56:07;;;;;;;5.60;3.13;;;16.20;99.90;;;;;;5051373;28;20448;-52
2023/07/23 06:58:35;;;;;;;8.05;3.75;;;16.20;99.90;;;;;;5049622;28;20138;-45
2023/07/23 07:01:01;;;;;;;8.45;3.42;;;16.20;99.90;;;;;;5049738;28;20028;-53
2023/07/23 07:03:27;;;;;;;8.63;3.30;;;16.20;99.90;;;;;;5051763;28;20028;-49
2023/07/23 07:05:52;;;;;;;6.13;3.55;;;16.30;99.90;;;;;;5052692;28;20120;-52
2023/07/23 07:08:18;;;;;;;7.28;4.13;;;16.30;99.90;;;;;;5045128;28;20100;-53
2023/07/23 07:10:44;;;;;;;9.02;3.63;;;16.40;99.90;;;;;;5032432;28;20028;-36
2023/07/23 07:13:09;;;;;;;6.38;3.55;;;16.40;99.90;;;;;;5048212;28;20075;-38
2023/07/23 07:15:35;;;;;;;7.82;3.10;;;16.40;99.90;;;;;;5043507;28;20512;-37
2023/07/23 07:18:01;;;;;;;9.75;3.60;;;16.40;99.90;;;;;;5049374;28;20047;-39
2023/07/23 07:20:26;;;;;;;5.63;3.45;;;16.40;99.90;;;;;;5051208;28;20025;-38
2023/07/23 07:22:52;;;;;;;11.05;4.15;;;16.40;99.90;;;;;;5051401;28;20025;-35
2023/07/23 07:25:18;;;;;;;6.43;3.45;;;16.40;99.90;;;;;;5052213;28;20029;-35
2023/07/23 07:27:43;;;;;;;6.13;3.47;;;16.40;99.90;;;;;;5048524;28;20441;-38
2023/07/23 07:30:09;;;;;;;4.25;3.13;;;16.40;99.90;;;;;;5050130;28;20025;-37
2023/07/23 07:32:35;;;;;;;11.23;3.85;;;16.30;99.90;;;;;;5051349;28;20040;-36
2023/07/23 07:35:01;;;;;;;4.60;3.22;;;16.40;99.90;;;;;;5051249;28;20032;-37
2023/07/23 07:37:27;;;;;;;8.07;4.07;;;16.30;99.90;;;;;;5054005;28;20021;-37
2023/07/23 07:39:53;;;;;;;4.28;3.22;;;16.40;99.90;;;;;;5052463;28;20021;-37
2023/07/23 07:42:18;;;;;;;7.40;3.55;;;16.40;99.90;;;;;;5053802;28;20488;-38
2023/07/23 07:44:44;;;;;;;7.65;3.45;;;16.30;99.90;;;;;;5054312;28;20040;-41
2023/07/23 07:47:10;;;;;;;10.70;3.72;;;16.30;99.90;;;;;;5055819;28;20390;-38
2023/07/23 07:49:36;;;;;;;15.35;3.78;;;16.40;99.90;;;;;;5052539;28;20025;-36
2023/07/23 07:52:01;;;;;;;8.65;3.70;;;16.40;99.90;;;;;;5055328;28;20071;-34
2023/07/23 07:54:27;;;;;;;9.73;3.85;;;16.50;99.90;;;;;;5052452;28;20455;-36
2023/07/23 07:56:54;;;;;;;5.75;3.47;;;16.50;99.90;;;;;;5054165;28;20477;-37
2023/07/23 07:59:20;;;;;;;4.30;3.00;;;16.50;99.90;;;;;;5053737;28;20103;-39
2023/07/23 08:01:46;;;;;;;6.22;3.20;;;16.50;99.90;;;;;;5055586;28;20123;-37
2023/07/23 08:04:12;;;;;;;6.82;3.58;;;16.50;99.90;;;;;;5055485;28;20430;-38
2023/07/23 08:06:38;;;;;;;5.90;3.55;;;16.60;99.90;;;;;;5051801;28;20380;-37
2023/07/23 08:09:07;;;;;;;5.82;3.50;;;16.60;99.90;;;;;;5052704;28;20119;-36
2023/07/23 08:11:35;;;;;;;7.97;3.60;;;16.60;99.90;;;;;;5052097;28;20028;-37
2023/07/23 08:14:01;;;;;;;6.97;3.28;;;16.60;99.90;;;;;;5053884;28;20036;-37
2023/07/23 08:16:27;;;;;;;5.13;3.60;;;16.70;99.90;;;;;;5053244;28;20029;-37
2023/07/23 08:18:53;;;;;;;4.35;3.28;;;16.70;99.90;;;;;;5051509;28;20029;-37
2023/07/23 08:21:19;;;;;;;7.07;3.45;;;16.70;99.90;;;;;;5054820;28;20502;-40
2023/07/23 08:23:45;;;;;;;5.18;3.20;;;16.70;99.90;;;;;;5055056;28;20036;-37
2023/07/23 08:26:16;;;;;;;7.70;4.00;;;16.80;99.90;;;;;;5052201;28;20017;-37
2023/07/23 08:28:49;;;;;;;5.15;3.17;;;16.80;99.90;;;;;;5053285;28;20044;-43
2023/07/23 08:31:16;;;;;;;10.70;3.03;;;16.80;99.90;;;;;;5052264;28;20029;-41
2023/07/23 08:33:46;;;;;;;6.90;2.88;;;16.80;99.90;;;;;;5053110;28;20048;-44
2023/07/23 08:36:12;;;;;;;3.72;2.97;;;16.80;99.90;;;;;;5053961;28;20021;-38
2023/07/23 08:38:38;;;;;;;7.13;3.17;;;16.90;99.90;;;;;;5052031;28;20393;-39
2023/07/23 08:41:20;;;;;;;4.93;3.40;;;16.90;99.90;;;;;;5051712;28;20017;-39
2023/07/23 08:44:06;;;;;;;11.57;3.85;;;16.90;99.90;;;;;;5054077;28;20032;-39
2023/07/23 08:46:34;;;;;;;6.72;3.47;;;16.90;99.90;;;;;;5050756;28;20040;-37
2023/07/23 08:49:04;;;;;;;;;;;17.00;99.90;;;;;;5053589;28;20104;-42
2023/07/23 08:51:37;;;;;;;10.32;3.60;;;17.00;99.90;;;;;;5051611;28;20008;-37
2023/07/23 08:54:06;;;;;;;6.20;3.65;;;17.00;99.90;;;;;;5051806;28;20103;-43
2023/07/23 08:56:35;;;;;;;3.65;2.95;;;17.00;99.90;;;;;;5051646;28;20489;-38
2023/07/23 08:59:02;;;;;;;6.43;3.33;;;17.10;99.90;;;;;;5042277;28;20469;-41
2023/07/23 09:01:38;;;;;;;16.60;5.77;;;17.00;99.90;;;;;;5051544;28;20115;-38
2023/07/23 09:04:06;;;;;;;5.10;3.22;;;17.10;99.90;;;;;;5053147;28;20021;-37
2023/07/23 09:06:32;;;;;;;4.75;3.08;;;17.10;99.90;;;;;;5052613;28;20519;-36
2023/07/23 09:09:02;;;;;;;4.88;2.78;;;17.20;99.90;;;;;;5054356;28;20021;-36
2023/07/23 09:11:29;;;;;;;3.97;2.80;;;17.20;99.90;;;;;;5051018;28;20481;-41
2023/07/23 09:14:00;;;;;;;5.53;3.47;;;17.20;99.90;;;;;;5054286;28;20074;-38
2023/07/23 09:16:25;;;;;;;4.38;3.38;;;17.20;99.90;;;;;;5048075;28;20103;-37
2023/07/23 09:18:51;;;;;;;9.75;3.47;;;17.30;99.90;;;;;;5048479;28;20021;-52
2023/07/23 09:21:24;;;;;;;4.82;3.17;;;17.30;99.90;;;;;;5040222;28;20037;-48
2023/07/23 09:23:57;;;;;;;8.10;3.13;;;17.30;99.90;;;;;;5033558;28;20057;-51
2023/07/23 09:26:26;;;;;;;4.97;3.88;;;17.30;99.90;;;;;;5049869;28;20052;-48
2023/07/23 09:28:53;;;;;;;5.63;2.97;;;17.30;99.90;;;;;;5048152;28;20513;-49
2023/07/23 09:31:26;;;;;;;3.33;3.00;;;17.30;99.90;;;;;;5050932;28;20040;-52
2023/07/23 09:33:56;;;;;;;7.05;3.10;;;17.30;99.90;;;;;;5052085;28;20032;-53
2023/07/23 09:36:24;;;;;;;4.55;3.17;;;17.30;99.90;;;;;;5050034;28;20020;-52
2023/07/23 09:38:58;;;;;;;6.78;3.35;;;17.40;99.90;;;;;;5051721;28;20098;-51
2023/07/23 09:41:29;;;;;;;7.07;3.10;;;17.50;99.90;;;;;;5052756;28;20483;-51
2023/07/23 09:43:58;;;;;;;7.00;3.83;;;17.60;99.90;;;;;;5051440;28;20513;-51
2023/07/23 09:46:25;;;;;;;4.38;3.55;;;17.60;99.90;;;;;;5047644;28;20040;-49
2023/07/23 09:48:51;;;;;;;4.10;3.20;;;17.60;99.90;;;;;;5052132;28;20509;-53
2023/07/23 09:51:17;;;;;;;5.60;2.90;;;17.70;99.90;;;;;;5055421;28;20100;-51
2023/07/23 09:53:45;;;;;;;3.63;3.00;;;17.70;99.90;;;;;;5041578;28;20108;-38
2023/07/23 09:56:15;;;;;;;5.30;2.90;;;17.70;99.90;;;;;;5049668;28;20031;-40
2023/07/23 09:58:43;;;;;;;6.25;3.67;;;17.70;99.90;;;;;;5050541;28;20021;-38
2023/07/23 10:01:09;;;;;;;5.75;3.65;;;17.70;99.90;;;;;;5053247;28;20033;-37
2023/07/23 10:03:37;;;;;;;8.10;3.95;;;17.80;99.90;;;;;;5053281;28;20025;-36
2023/07/23 10:06:03;;;;;;;5.60;2.90;;;17.70;99.90;;;;;;5048058;28;20075;-38
2023/07/23 10:08:31;;;;;;;4.40;2.72;;;17.60;99.90;;;;;;5046132;28;20025;-38
2023/07/23 10:10:56;;;;;;;5.97;3.30;;;17.60;99.90;;;;;;5044067;28;20025;-36
2023/07/23 10:13:22;;;;;;;4.22;2.95;;;17.50;99.90;;;;;;5045614;28;20032;-36
2023/07/23 10:15:50;;;;;;;4.80;2.95;;;17.40;99.90;;;;;;5033465;28;20021;-47
2023/07/23 10:18:18;;;;;;;4.05;2.80;;;17.40;99.90;;;;;;5052538;28;20025;-44
2023/07/23 10:20:45;;;;;;;4.03;2.83;;;17.30;99.90;;;;;;5053076;28;20390;-36
2023/07/23 10:23:11;;;;;;;3.88;2.42;;;17.30;99.90;;;;;;5051860;28;20028;-41
2023/07/23 10:25:37;;;;;;;4.18;3.08;;;17.30;99.90;;;;;;5052108;28;20075;-38
2023/07/23 10:28:19;;;;;;;4.15;2.70;;;17.30;99.90;;;;;;5052135;28;20416;-36
2023/07/23 10:30:45;;;;;;;7.72;3.17;;;17.40;99.90;;;;;;5051693;28;20436;-36
2023/07/23 10:33:11;;;;;;;4.18;3.38;;;17.50;99.90;;;;;;5052938;28;20028;-38
2023/07/23 10:35:54;;;;;;;6.07;3.10;;;17.50;99.90;;;;;;5048385;28;20405;-37
2023/07/23 10:38:24;;;;;;;4.55;3.08;;;17.60;99.90;;;;;;5036925;28;20358;-37
2023/07/23 10:40:50;;;;;;;4.82;3.30;;;17.70;99.90;;;;;;5051702;28;20029;-37
2023/07/23 10:43:16;;;;;;;4.70;3.42;;;17.70;99.90;;;;;;5035023;28;20474;-39
2023/07/23 10:46:04;;;;;;;3.45;3.05;;;17.80;99.90;;;;;;5047384;28;20025;-37
2023/07/23 10:48:52;;;;;;;4.68;3.25;;;17.80;99.90;;;;;;5049193;28;20036;-38
2023/07/23 10:51:20;;;;;;;3.95;3.30;;;18.00;99.90;;;;;;5032702;28;20140;-51
2023/07/23 10:54:06;;;;;;;6.07;3.90;;;18.20;99.90;;;;;;5032599;28;20040;-51
2023/07/23 10:56:33;;;;;;;4.63;3.15;;;18.30;99.90;;;;;;5049671;28;20171;-49
2023/07/23 10:59:12;;;;;;;3.88;3.17;;;18.40;99.90;;;;;;5043529;28;20026;-52
2023/07/23 11:01:41;;;;;;;4.93;3.60;;;18.50;99.90;;;;;;5040760;28;20017;-52
2023/07/23 11:04:10;;;;;;;7.25;3.67;;;18.60;99.90;;;;;;5036867;28;20445;-48
2023/07/23 11:06:37;;;;;;;5.47;4.10;;;18.60;99.90;;;;;;5032589;28;20026;-51
2023/07/23 11:09:13;;;;;;;4.63;3.65;;;18.60;99.90;;;;;;5032827;28;20091;-53
2023/07/23 11:11:40;;;;;;;4.70;3.55;;;18.60;99.90;;;;;;5033864;28;20028;-53
2023/07/23 11:14:24;;;;;;;5.78;3.95;;;18.60;99.90;;;;;;5042382;28;20402;-50
2023/07/23 11:16:53;;;;;;;4.63;3.47;;;18.60;99.90;;;;;;5038537;28;20029;-51
2023/07/23 11:19:20;;;;;;;5.97;3.78;;;18.60;99.90;;;;;;5052160;28;20477;-51
2023/07/23 11:21:56;;;;;;;5.55;4.00;;;18.70;99.90;;;;;;5055910;28;20029;-53
2023/07/23 11:24:25;;;;;;;6.60;3.70;;;18.80;99.90;;;;;;5056151;28;20028;-53
2023/07/23 11:26:52;;;;;;;4.55;3.20;;;19.00;99.90;;;;;;5056201;28;20077;-52
2023/07/23 11:29:18;;;;;;;4.80;3.67;;;19.00;99.90;;;;;;5056027;28;20062;-50
2023/07/23 11:31:45;;;;;;;4.82;3.78;;;19.10;99.90;;;;;;5055463;28;20371;-48
2023/07/23 11:34:12;;;;;;;7.47;3.55;;;19.20;99.90;;;;;;5056102;28;20036;-52
2023/07/23 11:36:38;;;;;;;5.20;3.75;;;19.10;99.90;;;;;;5048429;28;20028;-49
2023/07/23 11:39:05;;;;;;;7.40;4.40;;;19.20;99.90;;;;;;5047044;28;20017;-52
2023/07/23 11:41:40;;;;;;;5.97;3.83;;;19.30;99.90;;;;;;5048559;28;20028;-53
2023/07/23 11:44:07;;;;;;;8.27;4.05;;;19.40;99.90;;;;;;5054051;28;20028;-52
2023/07/23 11:46:38;;;;;;;5.13;3.38;;;19.40;99.90;;;;;;5046426;28;20021;-51
2023/07/23 11:49:06;;;;;;;6.88;3.80;;;19.60;99.90;;;;;;5048239;28;20517;-52
2023/07/23 11:51:33;;;;;;;10.57;4.28;;;19.70;99.90;;;;;;5043541;28;20017;-52
2023/07/23 11:54:10;;;;;;;6.20;4.17;;;19.70;99.90;;;;;;5052132;28;20100;-53
2023/07/23 11:56:37;;;;;;;4.97;4.13;;;19.90;99.90;;;;;;5045983;28;20033;-53
2023/07/23 11:59:08;;;;;;;6.00;4.38;;;19.90;99.90;;;;;;5051261;28;20029;-51
2023/07/23 12:01:36;;;;;;;8.57;3.67;;;20.10;99.90;;;;;;5045158;28;20029;-52
2023/07/23 12:04:03;;;;;;;;;;;20.50;99.90;;;;;;5043353;28;20469;-51
2023/07/23 12:06:30;;;;;;;5.15;3.33;;;20.70;99.90;;;;;;5049015;28;19909;-53
2023/07/23 12:08:56;;;;;;;5.93;3.25;;;20.80;99.90;;;;;;5042416;28;20025;-49
2023/07/23 12:11:23;;;;;;;3.28;2.97;;;20.90;99.90;;;;;;5038295;28;20074;-45
2023/07/23 12:13:54;;;;;;;7.40;3.58;;;21.00;99.90;;;;;;5036724;28;20531;-45
2023/07/23 12:16:49;;;;;;;4.22;3.65;;;21.10;99.90;;;;;;5047768;28;20025;-52
2023/07/23 12:19:17;;;;;;;4.55;3.22;;;21.20;99.90;;;;;;5039499;28;20041;-48
2023/07/23 12:21:46;;;;;;;4.70;2.92;;;21.30;99.90;;;;;;5039144;28;20110;-50
2023/07/23 12:24:19;;;;;;;6.03;3.58;;;21.30;99.90;;;;;;5038555;28;20033;-50
2023/07/23 12:26:52;;;;;;;9.10;4.15;;;21.20;99.90;;;;;;5043059;28;20225;-52
2023/07/23 12:29:19;;;;;;;5.88;3.42;;;21.20;99.90;;;;;;5036527;28;20042;-52
2023/07/23 12:31:47;;;;;;;4.55;3.47;;;21.10;99.90;;;;;;5035457;28;20386;-52
2023/07/23 12:34:14;;;;;;;5.60;3.67;;;21.20;99.90;;;;;;5035364;28;20032;-51
2023/07/23 12:36:40;;;;;;;3.55;3.25;;;21.20;99.90;;;;;;5035369;28;20097;-50
2023/07/23 12:39:08;;;;;;;5.27;3.63;;;21.20;99.90;;;;;;5035022;28;20474;-50
2023/07/23 12:41:34;;;;;;;4.80;3.30;;;21.10;99.90;;;;;;5053170;28;20029;-51
2023/07/23 12:44:01;;;;;;;6.22;3.17;;;21.00;99.90;;;;;;5053794;28;20124;-52
2023/07/23 12:46:27;;;;;;;3.20;2.58;;;21.00;99.90;;;;;;5054790;28;20024;-51